CDT,Max TemperatureF,Mean TemperatureF,Min TemperatureF,Max Dew PointF,MeanDew PointF,Min DewpointF,Max Humidity, Mean Humidity, Min Humidity, Max Sea Level PressureIn, Mean Sea Level PressureIn, Min Sea Level PressureIn, Max VisibilityMiles, Mean VisibilityMiles, Min VisibilityMiles, Max Wind SpeedMPH, Mean Wind SpeedMPH, Max Gust SpeedMPH,PrecipitationIn, CloudCover, Events, WindDirDegrees
2013-3-1,28,26,23,23,20,16,93,78,69,30.34,30.25,30.18,10,9,2,16,12,20,0.00,8,Rain-Snow,360
2013-3-2,32,26,21,23,19,16,86,75,60,30.34,30.25,30.13,10,10,2,12,7,14,0.00,6,,274
2013-3-3,37,30,24,25,22,18,86,68,60,30.12,29.93,29.79,10,10,10,17,8,24,0.00,3,,148
2013-3-4,42,37,32,34,28,21,100,76,61,29.97,29.79,29.72,10,9,2,14,8,24,0.00,6,Rain,98
2013-3-5,33,28,24,32,22,18,93,76,69,30.34,30.12,29.97,10,9,2,33,19,43,0.00,8,Rain-Snow,315
2013-3-6,35,28,21,23,20,18,86,73,56,30.41,30.35,30.28,10,10,10,17,10,23,0.00,4,,20
2013-3-7,42,32,21,28,23,18,93,75,57,30.31,30.24,30.15,10,10,3,15,8,21,0.00,2,,125
2013-3-8,53,40,26,37,31,25,93,69,47,30.22,30.12,29.96,10,10,4,18,7,28,0.01,4,Rain,137
2013-3-9,48,44,41,48,42,37,100,95,87,29.95,29.74,29.58,10,5,0,25,9,33,0.12,8,Fog-Rain,155
2013-3-10,39,32,24,39,30,23,100,96,86,29.85,29.77,29.66,10,3,0,28,20,40,0.13,8,Fog-Rain-Snow,353
2013-3-11,28,22,17,23,20,14,93,84,69,29.97,29.87,29.81,10,8,1,25,17,32,0.00,6,Rain-Snow,304
2013-3-12,32,24,17,25,21,14,93,79,69,30.29,30.12,29.98,10,10,5,28,11,37,0.00,5,Rain-Snow,295
2013-3-13,32,23,14,25,19,10,93,79,64,30.45,30.36,30.26,10,10,10,13,6,,0.00,1,,297
2013-3-14,50,41,32,39,31,23,100,77,62,30.26,30.11,30.07,10,9,1,14,9,17,0.00,2,,230
2013-3-15,55,42,28,45,38,28,100,89,67,30.06,29.83,29.71,10,5,0,16,4,24,0.00,1,Fog,341
2013-3-16,37,32,28,37,28,21,100,86,74,30.20,30.04,29.83,10,9,2,26,15,36,0.00,8,,15
2013-3-17,41,32,23,34,24,18,100,74,53,30.17,29.97,29.79,10,10,2,17,11,22,0.00,5,Rain,98
2013-3-18,33,28,24,34,24,16,100,75,51,30.02,29.85,29.71,10,8,2,30,12,43,0.07,4,Rain-Snow,286
2013-3-19,44,32,19,27,18,10,80,63,39,30.27,30.14,30.02,10,10,10,17,8,24,0.00,1,Snow,318
2013-3-20,30,22,14,18,10,3,86,61,40,30.38,30.27,30.13,10,10,6,26,16,33,0.00,3,Snow,330
2013-3-21,33,24,15,19,13,9,86,63,40,30.12,30.02,29.92,10,10,10,12,5,16,0.00,6,,81
2013-3-22,35,28,21,25,19,16,86,68,48,30.04,30.01,29.97,10,10,2,12,6,17,0.00,6,,78
2013-3-23,37,32,28,30,24,16,100,75,44,30.12,30.06,30.02,10,8,1,16,9,23,0.00,6,Rain-Snow,38
2013-3-24,30,27,24,25,23,21,93,84,74,30.04,30.00,29.96,10,6,2,25,17,32,0.00,7,Rain-Snow,339
2013-3-25,32,28,24,27,23,21,100,81,64,30.30,30.15,30.02,10,7,2,24,17,30,0.00,7,Rain-Snow,328
2013-3-26,37,29,21,23,20,16,93,70,48,30.36,30.30,30.24,10,10,9,13,8,16,0.00,4,,308
2013-3-27,50,34,19,30,25,18,100,71,43,30.30,30.26,30.20,10,10,2,14,4,17,0.00,3,,112
2013-3-28,57,40,24,36,31,23,100,67,38,30.27,30.23,30.16,10,10,2,13,4,17,0.00,3,,71
2013-3-29,66,49,32,37,32,28,93,58,26,30.25,30.17,30.07,10,10,7,15,6,22,0.00,1,,138
2013-3-30,64,54,44,50,42,34,93,68,45,30.08,29.95,29.88,10,10,2,21,8,24,0.02,5,Rain,273
2013-3-31,53,42,30,39,32,21,100,67,28,30.12,29.97,29.92,10,9,1,25,11,32,0.00,3,Rain-Snow,341